This is the latest recevied weather packets stored in our database for station/object LRTM. If no packets are shown the sender has not sent any weather packets the latest 10 day(s).
| Time | Temp. | Humidity | Pressure | Rain* | Wind** | Luminosity | Snow |
|---|---|---|---|---|---|---|---|
| 1777700007 | 7.22° C | 76% | 1023 hPa | - | - | - | - |
| 1777699106 | 7.22° C | 71% | 1023 hPa | - | - | - | - |
| 1777698206 | 7.22° C | 71% | 1023 hPa | - | - | - | - |
| 1777697306 | 7.22° C | 71% | 1023 hPa | - | - | - | - |
| 1777696406 | 6.11° C | 76% | 1023 hPa | - | - | - | - |
| 1777695506 | 6.11° C | 76% | 1023 hPa | - | - | - | - |
| 1777694606 | 6.11° C | 76% | 1023 hPa | - | - | - | - |
| 1777693784 | 6.11° C | 71% | 1023 hPa | - | - | - | - |
| 1777692806 | 6.11° C | 71% | 1023 hPa | - | - | - | - |
| 1777691906 | 5° C | 76% | 1023 hPa | - | - | - | - |
| 1777691006 | 5° C | 76% | 1023 hPa | - | - | - | - |
| 1777690106 | 5° C | 76% | 1023 hPa | - | - | - | - |
| 1777689206 | 5° C | 76% | 1023 hPa | - | - | - | - |
| 1777688307 | 6.11° C | 71% | 1023 hPa | - | - | - | - |
| 1777673006 | 7.22° C | 66% | 1023 hPa | - | - | - | - |
| 1777671207 | 7.22° C | 61% | 1023 hPa | - | - | - | - |
| 1777670306 | 7.78° C | 53% | 1023 hPa | - | - | - | - |
| 1777669407 | 7.78° C | 53% | 1023 hPa | - | - | - | - |
| 1777666707 | 7.78° C | 53% | 1023 hPa | - | - | - | - |
| 1777665806 | 7.78° C | 53% | 1023 hPa | - | - | - | - |
| 1777663106 | 12.22° C | 38% | 1023 hPa | - | - | - | - |
| 1777661306 | 10° C | 58% | 1023 hPa | - | - | - | - |
| 1777660435 | 10° C | 58% | 1023 hPa | - | - | - | - |
| 1777659507 | 11.11° C | 50% | 1022 hPa | - | - | - | - |
| 1777658629 | 11.11° C | 50% | 1022 hPa | - | - | - | - |
* Rain since midnight (hover to see other rain measurements)
** Current wind speed in m/s (hover to see current wind gust speed)